sensor_id;sensor_type;location;lat;lon;timestamp;temperature;humidity
10030;DHT22;5055;52.054;8.524;2022-07-17T00:01:26;11.40;97.00
10030;DHT22;5055;52.054;8.524;2022-07-17T00:03:55;11.40;97.00
10030;DHT22;5055;52.054;8.524;2022-07-17T00:06:23;11.40;97.00
10030;DHT22;5055;52.054;8.524;2022-07-17T00:08:51;11.30;97.00
10030;DHT22;5055;52.054;8.524;2022-07-17T00:11:21;11.30;97.00
10030;DHT22;5055;52.054;8.524;2022-07-17T00:13:49;11.30;97.00
10030;DHT22;5055;52.054;8.524;2022-07-17T00:16:17;11.20;97.00
10030;DHT22;5055;52.054;8.524;2022-07-17T00:18:55;11.10;97.00
10030;DHT22;5055;52.054;8.524;2022-07-17T00:21:26;11.10;97.00
10030;DHT22;5055;52.054;8.524;2022-07-17T00:23:56;11.10;97.00
10030;DHT22;5055;52.054;8.524;2022-07-17T00:26:25;11.10;97.00
10030;DHT22;5055;52.054;8.524;2022-07-17T00:28:53;11.10;97.00
10030;DHT22;5055;52.054;8.524;2022-07-17T00:31:23;11.00;97.00
10030;DHT22;5055;52.054;8.524;2022-07-17T00:34:08;11.00;97.00
10030;DHT22;5055;52.054;8.524;2022-07-17T00:36:36;10.90;97.00
10030;DHT22;5055;52.054;8.524;2022-07-17T00:39:05;10.90;97.00
10030;DHT22;5055;52.054;8.524;2022-07-17T00:41:35;10.90;97.00
10030;DHT22;5055;52.054;8.524;2022-07-17T00:44:04;10.80;97.00
10030;DHT22;5055;52.054;8.524;2022-07-17T00:46:34;10.80;97.00
10030;DHT22;5055;52.054;8.524;2022-07-17T00:49:03;10.70;97.00
10030;DHT22;5055;52.054;8.524;2022-07-17T00:51:33;10.70;97.00
10030;DHT22;5055;52.054;8.524;2022-07-17T00:54:02;10.70;97.00
10030;DHT22;5055;52.054;8.524;2022-07-17T00:56:37;10.60;97.00
10030;DHT22;5055;52.054;8.524;2022-07-17T00:59:07;10.60;97.00
10030;DHT22;5055;52.054;8.524;2022-07-17T01:01:35;10.60;97.00
10030;DHT22;5055;52.054;8.524;2022-07-17T01:04:04;10.50;97.00
10030;DHT22;5055;52.054;8.524;2022-07-17T01:06:33;10.50;97.00
10030;DHT22;5055;52.054;8.524;2022-07-17T01:09:01;10.50;97.00
10030;DHT22;5055;52.054;8.524;2022-07-17T01:11:29;10.50;97.00
10030;DHT22;5055;52.054;8.524;2022-07-17T01:14:00;10.40;97.00
10030;DHT22;5055;52.054;8.524;2022-07-17T01:16:29;10.40;97.00
10030;DHT22;5055;52.054;8.524;2022-07-17T01:18:58;10.40;97.00
10030;DHT22;5055;52.054;8.524;2022-07-17T01:21:38;10.30;97.00
10030;DHT22;5055;52.054;8.524;2022-07-17T01:24:07;10.30;97.00
10030;DHT22;5055;52.054;8.524;2022-07-17T01:26:35;10.20;97.00
10030;DHT22;5055;52.054;8.524;2022-07-17T01:29:03;10.20;97.00
10030;DHT22;5055;52.054;8.524;2022-07-17T01:31:31;10.20;97.00
10030;DHT22;5055;52.054;8.524;2022-07-17T01:34:01;10.10;97.00
10030;DHT22;5055;52.054;8.524;2022-07-17T01:36:29;10.10;97.00
10030;DHT22;5055;52.054;8.524;2022-07-17T01:38:58;10.10;97.00
10030;DHT22;5055;52.054;8.524;2022-07-17T01:41:26;10.00;97.00
10030;DHT22;5055;52.054;8.524;2022-07-17T01:43:56;10.00;97.00
10030;DHT22;5055;52.054;8.524;2022-07-17T01:46:25;10.00;97.00
10030;DHT22;5055;52.054;8.524;2022-07-17T01:48:53;9.90;97.00
10030;DHT22;5055;52.054;8.524;2022-07-17T01:51:22;9.90;97.00
10030;DHT22;5055;52.054;8.524;2022-07-17T01:53:58;9.90;97.00
10030;DHT22;5055;52.054;8.524;2022-07-17T01:56:26;9.90;97.00
10030;DHT22;5055;52.054;8.524;2022-07-17T01:58:55;9.90;97.00
10030;DHT22;5055;52.054;8.524;2022-07-17T02:01:23;9.90;97.00
10030;DHT22;5055;52.054;8.524;2022-07-17T02:03:52;9.80;97.00
10030;DHT22;5055;52.054;8.524;2022-07-17T02:06:20;9.80;97.00
10030;DHT22;5055;52.054;8.524;2022-07-17T02:08:48;9.80;97.00
10030;DHT22;5055;52.054;8.524;2022-07-17T02:11:19;9.70;97.00
10030;DHT22;5055;52.054;8.524;2022-07-17T02:13:47;9.70;97.00
10030;DHT22;5055;52.054;8.524;2022-07-17T02:16:16;9.70;97.00
10030;DHT22;5055;52.054;8.524;2022-07-17T02:18:45;9.60;97.00
10030;DHT22;5055;52.054;8.524;2022-07-17T02:21:13;9.50;97.00
10030;DHT22;5055;52.054;8.524;2022-07-17T02:23:41;9.50;97.00
10030;DHT22;5055;52.054;8.524;2022-07-17T02:26:09;9.40;97.00
10030;DHT22;5055;52.054;8.524;2022-07-17T02:28:39;9.40;97.00
10030;DHT22;5055;52.054;8.524;2022-07-17T02:31:07;9.40;97.00
10030;DHT22;5055;52.054;8.524;2022-07-17T02:33:36;9.40;97.00
10030;DHT22;5055;52.054;8.524;2022-07-17T02:36:05;9.30;97.00
10030;DHT22;5055;52.054;8.524;2022-07-17T02:38:33;9.30;97.00
10030;DHT22;5055;52.054;8.524;2022-07-17T02:41:02;9.30;97.00
10030;DHT22;5055;52.054;8.524;2022-07-17T02:43:30;9.20;97.00
10030;DHT22;5055;52.054;8.524;2022-07-17T02:46:00;9.20;97.00
10030;DHT22;5055;52.054;8.524;2022-07-17T02:48:29;9.20;97.00
10030;DHT22;5055;52.054;8.524;2022-07-17T02:50:57;9.10;97.00
10030;DHT22;5055;52.054;8.524;2022-07-17T02:53:26;9.10;97.00
10030;DHT22;5055;52.054;8.524;2022-07-17T02:55:54;9.10;97.00
10030;DHT22;5055;52.054;8.524;2022-07-17T02:58:23;9.10;97.00
10030;DHT22;5055;52.054;8.524;2022-07-17T03:00:51;9.00;97.00
10030;DHT22;5055;52.054;8.524;2022-07-17T03:03:21;9.00;97.00
10030;DHT22;5055;52.054;8.524;2022-07-17T03:05:49;9.00;97.00
10030;DHT22;5055;52.054;8.524;2022-07-17T03:08:19;9.00;97.00
10030;DHT22;5055;52.054;8.524;2022-07-17T03:10:47;9.00;97.00
10030;DHT22;5055;52.054;8.524;2022-07-17T03:13:15;9.00;97.00
10030;DHT22;5055;52.054;8.524;2022-07-17T03:15:44;8.90;97.00
10030;DHT22;5055;52.054;8.524;2022-07-17T03:18:13;8.90;97.00
10030;DHT22;5055;52.054;8.524;2022-07-17T03:20:42;8.90;97.00
10030;DHT22;5055;52.054;8.524;2022-07-17T03:23:10;8.90;97.00
10030;DHT22;5055;52.054;8.524;2022-07-17T03:25:39;8.90;97.00
10030;DHT22;5055;52.054;8.524;2022-07-17T03:28:07;8.90;97.00
10030;DHT22;5055;52.054;8.524;2022-07-17T03:30:36;8.90;97.00
10030;DHT22;5055;52.054;8.524;2022-07-17T03:33:04;8.90;97.00
10030;DHT22;5055;52.054;8.524;2022-07-17T03:35:32;8.90;97.00
10030;DHT22;5055;52.054;8.524;2022-07-17T03:38:01;8.90;97.00
10030;DHT22;5055;52.054;8.524;2022-07-17T03:40:30;8.80;97.00
10030;DHT22;5055;52.054;8.524;2022-07-17T03:42:58;8.80;97.00
10030;DHT22;5055;52.054;8.524;2022-07-17T03:45:26;8.80;97.00
10030;DHT22;5055;52.054;8.524;2022-07-17T03:47:57;8.80;97.00
10030;DHT22;5055;52.054;8.524;2022-07-17T03:50:26;8.80;97.00
10030;DHT22;5055;52.054;8.524;2022-07-17T03:52:54;8.80;97.00
10030;DHT22;5055;52.054;8.524;2022-07-17T03:55:24;8.90;97.00
10030;DHT22;5055;52.054;8.524;2022-07-17T03:57:53;8.90;97.00
10030;DHT22;5055;52.054;8.524;2022-07-17T04:00:21;8.90;97.00
10030;DHT22;5055;52.054;8.524;2022-07-17T04:02:49;8.90;97.00
10030;DHT22;5055;52.054;8.524;2022-07-17T04:05:17;8.90;97.00
10030;DHT22;5055;52.054;8.524;2022-07-17T04:07:46;9.00;97.00
10030;DHT22;5055;52.054;8.524;2022-07-17T04:10:14;9.00;97.00
10030;DHT22;5055;52.054;8.524;2022-07-17T04:12:44;8.90;97.00
10030;DHT22;5055;52.054;8.524;2022-07-17T04:15:15;8.90;97.00
10030;DHT22;5055;52.054;8.524;2022-07-17T04:18:04;9.00;97.00
10030;DHT22;5055;52.054;8.524;2022-07-17T04:20:32;9.00;97.00
10030;DHT22;5055;52.054;8.524;2022-07-17T04:23:00;9.00;97.00
10030;DHT22;5055;52.054;8.524;2022-07-17T04:25:29;9.00;97.00
10030;DHT22;5055;52.054;8.524;2022-07-17T04:27:59;9.00;97.00
10030;DHT22;5055;52.054;8.524;2022-07-17T04:30:27;9.00;97.00
10030;DHT22;5055;52.054;8.524;2022-07-17T04:32:56;9.00;97.00
10030;DHT22;5055;52.054;8.524;2022-07-17T04:35:24;9.10;97.00
10030;DHT22;5055;52.054;8.524;2022-07-17T04:37:53;9.10;97.00
10030;DHT22;5055;52.054;8.524;2022-07-17T04:40:21;9.10;97.00
10030;DHT22;5055;52.054;8.524;2022-07-17T04:42:50;9.20;97.00
10030;DHT22;5055;52.054;8.524;2022-07-17T04:45:19;9.20;97.00
10030;DHT22;5055;52.054;8.524;2022-07-17T04:47:48;9.30;97.00
10030;DHT22;5055;52.054;8.524;2022-07-17T04:50:16;9.40;97.00
10030;DHT22;5055;52.054;8.524;2022-07-17T04:52:44;9.50;97.00
10030;DHT22;5055;52.054;8.524;2022-07-17T04:55:13;9.60;97.00
10030;DHT22;5055;52.054;8.524;2022-07-17T04:57:41;9.80;97.00
10030;DHT22;5055;52.054;8.524;2022-07-17T05:00:11;9.90;97.00
10030;DHT22;5055;52.054;8.524;2022-07-17T05:02:40;10.00;97.00
10030;DHT22;5055;52.054;8.524;2022-07-17T05:05:09;10.10;97.00
10030;DHT22;5055;52.054;8.524;2022-07-17T05:07:38;10.30;97.00
10030;DHT22;5055;52.054;8.524;2022-07-17T05:10:06;10.50;97.00
10030;DHT22;5055;52.054;8.524;2022-07-17T05:12:36;10.70;97.00
10030;DHT22;5055;52.054;8.524;2022-07-17T05:15:05;10.90;97.00
10030;DHT22;5055;52.054;8.524;2022-07-17T05:17:33;11.20;97.00
10030;DHT22;5055;52.054;8.524;2022-07-17T05:20:04;11.60;97.00
10030;DHT22;5055;52.054;8.524;2022-07-17T05:22:33;11.90;97.00
10030;DHT22;5055;52.054;8.524;2022-07-17T05:25:01;12.30;97.00
10030;DHT22;5055;52.054;8.524;2022-07-17T05:27:29;12.60;97.00
10030;DHT22;5055;52.054;8.524;2022-07-17T05:29:57;12.90;97.00
10030;DHT22;5055;52.054;8.524;2022-07-17T05:32:25;13.10;97.00
10030;DHT22;5055;52.054;8.524;2022-07-17T05:34:53;13.40;97.00
10030;DHT22;5055;52.054;8.524;2022-07-17T05:37:23;13.60;97.00
10030;DHT22;5055;52.054;8.524;2022-07-17T05:39:51;13.90;97.00
10030;DHT22;5055;52.054;8.524;2022-07-17T05:42:20;14.10;97.00
10030;DHT22;5055;52.054;8.524;2022-07-17T05:44:50;14.30;97.00
10030;DHT22;5055;52.054;8.524;2022-07-17T05:47:18;14.60;97.00
10030;DHT22;5055;52.054;8.524;2022-07-17T05:49:46;14.90;97.00
10030;DHT22;5055;52.054;8.524;2022-07-17T05:52:20;15.20;97.00
10030;DHT22;5055;52.054;8.524;2022-07-17T05:54:55;15.40;97.00
10030;DHT22;5055;52.054;8.524;2022-07-17T05:57:23;15.70;97.00
10030;DHT22;5055;52.054;8.524;2022-07-17T05:59:51;15.90;97.00
10030;DHT22;5055;52.054;8.524;2022-07-17T06:02:21;16.20;97.00
10030;DHT22;5055;52.054;8.524;2022-07-17T06:04:53;16.50;97.00
10030;DHT22;5055;52.054;8.524;2022-07-17T06:07:21;16.70;97.00
10030;DHT22;5055;52.054;8.524;2022-07-17T06:09:49;16.90;97.00
10030;DHT22;5055;52.054;8.524;2022-07-17T06:12:19;17.00;97.00
10030;DHT22;5055;52.054;8.524;2022-07-17T06:14:47;16.90;97.00
10030;DHT22;5055;52.054;8.524;2022-07-17T06:17:15;16.80;97.00
10030;DHT22;5055;52.054;8.524;2022-07-17T06:19:44;17.00;97.00
10030;DHT22;5055;52.054;8.524;2022-07-17T06:22:12;17.10;97.00
10030;DHT22;5055;52.054;8.524;2022-07-17T06:24:40;17.20;97.00
10030;DHT22;5055;52.054;8.524;2022-07-17T06:27:08;17.20;97.00
10030;DHT22;5055;52.054;8.524;2022-07-17T06:29:38;17.20;97.00
10030;DHT22;5055;52.054;8.524;2022-07-17T06:32:17;17.00;97.00
10030;DHT22;5055;52.054;8.524;2022-07-17T06:34:45;16.80;97.00
10030;DHT22;5055;52.054;8.524;2022-07-17T06:37:14;17.00;97.00
10030;DHT22;5055;52.054;8.524;2022-07-17T06:39:42;17.20;97.00
10030;DHT22;5055;52.054;8.524;2022-07-17T06:42:12;17.50;97.00
10030;DHT22;5055;52.054;8.524;2022-07-17T06:44:41;17.90;97.00
10030;DHT22;5055;52.054;8.524;2022-07-17T06:47:09;18.30;97.00
10030;DHT22;5055;52.054;8.524;2022-07-17T06:49:38;18.70;97.00
10030;DHT22;5055;52.054;8.524;2022-07-17T06:52:06;19.10;97.00
10030;DHT22;5055;52.054;8.524;2022-07-17T06:54:35;19.50;97.00
10030;DHT22;5055;52.054;8.524;2022-07-17T06:57:03;19.80;97.00
10030;DHT22;5055;52.054;8.524;2022-07-17T06:59:32;19.80;97.00
10030;DHT22;5055;52.054;8.524;2022-07-17T07:02:01;19.80;97.00
10030;DHT22;5055;52.054;8.524;2022-07-17T07:04:30;19.50;97.00
10030;DHT22;5055;52.054;8.524;2022-07-17T07:06:58;19.30;97.00
10030;DHT22;5055;52.054;8.524;2022-07-17T07:09:26;19.50;97.00
10030;DHT22;5055;52.054;8.524;2022-07-17T07:11:54;19.70;97.00
10030;DHT22;5055;52.054;8.524;2022-07-17T07:14:22;20.30;97.00
10030;DHT22;5055;52.054;8.524;2022-07-17T07:16:51;20.40;97.00
10030;DHT22;5055;52.054;8.524;2022-07-17T07:19:20;20.30;97.00
10030;DHT22;5055;52.054;8.524;2022-07-17T07:21:49;19.90;97.00
10030;DHT22;5055;52.054;8.524;2022-07-17T07:24:19;20.30;97.00
10030;DHT22;5055;52.054;8.524;2022-07-17T07:26:48;20.70;97.00
10030;DHT22;5055;52.054;8.524;2022-07-17T07:29:16;21.00;97.00
10030;DHT22;5055;52.054;8.524;2022-07-17T07:31:44;21.10;97.00
10030;DHT22;5055;52.054;8.524;2022-07-17T07:34:14;21.30;97.00
10030;DHT22;5055;52.054;8.524;2022-07-17T07:36:43;21.60;97.00
10030;DHT22;5055;52.054;8.524;2022-07-17T07:39:12;21.90;97.00
10030;DHT22;5055;52.054;8.524;2022-07-17T07:41:40;22.20;97.00
10030;DHT22;5055;52.054;8.524;2022-07-17T07:44:08;22.50;97.00
10030;DHT22;5055;52.054;8.524;2022-07-17T07:46:36;22.40;97.00
10030;DHT22;5055;52.054;8.524;2022-07-17T07:49:05;22.20;97.00
10030;DHT22;5055;52.054;8.524;2022-07-17T07:51:33;21.90;97.00
10030;DHT22;5055;52.054;8.524;2022-07-17T07:54:22;21.70;97.00
10030;DHT22;5055;52.054;8.524;2022-07-17T07:56:51;22.20;97.00
10030;DHT22;5055;52.054;8.524;2022-07-17T07:59:21;22.60;97.00
10030;DHT22;5055;52.054;8.524;2022-07-17T08:01:50;23.00;97.00
10030;DHT22;5055;52.054;8.524;2022-07-17T08:04:19;23.00;97.00
10030;DHT22;5055;52.054;8.524;2022-07-17T08:06:47;23.50;97.00
10030;DHT22;5055;52.054;8.524;2022-07-17T08:09:15;23.80;97.00
10030;DHT22;5055;52.054;8.524;2022-07-17T08:11:46;24.20;97.00
10030;DHT22;5055;52.054;8.524;2022-07-17T08:14:14;24.40;97.00
10030;DHT22;5055;52.054;8.524;2022-07-17T08:16:46;24.60;97.00
10030;DHT22;5055;52.054;8.524;2022-07-17T08:19:15;24.70;97.00
10030;DHT22;5055;52.054;8.524;2022-07-17T08:21:43;24.80;97.00
10030;DHT22;5055;52.054;8.524;2022-07-17T08:24:11;24.90;97.00
10030;DHT22;5055;52.054;8.524;2022-07-17T08:26:39;25.10;97.00
10030;DHT22;5055;52.054;8.524;2022-07-17T08:29:09;25.20;97.00
10030;DHT22;5055;52.054;8.524;2022-07-17T08:31:37;25.30;97.00
10030;DHT22;5055;52.054;8.524;2022-07-17T08:34:06;25.40;97.00
10030;DHT22;5055;52.054;8.524;2022-07-17T08:36:34;25.50;97.00
10030;DHT22;5055;52.054;8.524;2022-07-17T08:39:02;25.30;97.00
10030;DHT22;5055;52.054;8.524;2022-07-17T08:41:30;25.30;97.00
10030;DHT22;5055;52.054;8.524;2022-07-17T08:44:04;25.30;97.00
10030;DHT22;5055;52.054;8.524;2022-07-17T08:46:36;25.30;97.00
10030;DHT22;5055;52.054;8.524;2022-07-17T08:49:06;25.00;97.00
10030;DHT22;5055;52.054;8.524;2022-07-17T08:51:35;25.20;97.00
10030;DHT22;5055;52.054;8.524;2022-07-17T08:54:12;25.50;97.00
10030;DHT22;5055;52.054;8.524;2022-07-17T08:56:40;25.50;97.00
10030;DHT22;5055;52.054;8.524;2022-07-17T08:59:09;26.00;97.00
10030;DHT22;5055;52.054;8.524;2022-07-17T09:01:39;26.20;97.00
10030;DHT22;5055;52.054;8.524;2022-07-17T09:04:07;26.20;97.00
10030;DHT22;5055;52.054;8.524;2022-07-17T09:06:36;26.00;97.00
10030;DHT22;5055;52.054;8.524;2022-07-17T09:09:06;26.10;97.00
10030;DHT22;5055;52.054;8.524;2022-07-17T09:11:45;26.30;97.00
10030;DHT22;5055;52.054;8.524;2022-07-17T09:14:14;26.30;97.00
10030;DHT22;5055;52.054;8.524;2022-07-17T09:16:52;26.50;97.00
10030;DHT22;5055;52.054;8.524;2022-07-17T09:19:25;26.30;97.00
10030;DHT22;5055;52.054;8.524;2022-07-17T09:22:07;26.50;97.00
10030;DHT22;5055;52.054;8.524;2022-07-17T09:24:44;26.70;97.00
10030;DHT22;5055;52.054;8.524;2022-07-17T09:27:15;27.10;97.00
10030;DHT22;5055;52.054;8.524;2022-07-17T09:29:54;27.30;97.00
10030;DHT22;5055;52.054;8.524;2022-07-17T09:32:26;27.00;97.00
10030;DHT22;5055;52.054;8.524;2022-07-17T09:34:56;27.10;97.00
10030;DHT22;5055;52.054;8.524;2022-07-17T09:37:26;27.20;97.00
10030;DHT22;5055;52.054;8.524;2022-07-17T09:39:54;27.00;97.00
10030;DHT22;5055;52.054;8.524;2022-07-17T09:42:26;26.10;97.00
10030;DHT22;5055;52.054;8.524;2022-07-17T09:44:56;26.60;97.00
10030;DHT22;5055;52.054;8.524;2022-07-17T09:47:26;27.00;97.00
10030;DHT22;5055;52.054;8.524;2022-07-17T09:49:56;27.20;97.00
10030;DHT22;5055;52.054;8.524;2022-07-17T09:52:26;27.40;97.00
10030;DHT22;5055;52.054;8.524;2022-07-17T09:54:58;27.60;97.00
10030;DHT22;5055;52.054;8.524;2022-07-17T09:57:47;27.70;97.00
10030;DHT22;5055;52.054;8.524;2022-07-17T10:00:16;27.80;97.00
10030;DHT22;5055;52.054;8.524;2022-07-17T10:02:51;27.90;97.00
10030;DHT22;5055;52.054;8.524;2022-07-17T10:05:20;28.00;97.00
10030;DHT22;5055;52.054;8.524;2022-07-17T10:07:49;27.90;97.00
10030;DHT22;5055;52.054;8.524;2022-07-17T10:10:17;28.10;97.00
10030;DHT22;5055;52.054;8.524;2022-07-17T10:12:48;28.10;97.00
10030;DHT22;5055;52.054;8.524;2022-07-17T10:15:17;27.80;97.00
10030;DHT22;5055;52.054;8.524;2022-07-17T10:17:47;26.90;97.00
10030;DHT22;5055;52.054;8.524;2022-07-17T10:20:25;26.60;97.00
10030;DHT22;5055;52.054;8.524;2022-07-17T10:22:53;26.80;97.00
10030;DHT22;5055;52.054;8.524;2022-07-17T10:25:22;25.90;97.00
10030;DHT22;5055;52.054;8.524;2022-07-17T10:27:55;25.90;97.00
10030;DHT22;5055;52.054;8.524;2022-07-17T10:30:24;26.50;97.00
10030;DHT22;5055;52.054;8.524;2022-07-17T10:32:57;26.70;97.00
10030;DHT22;5055;52.054;8.524;2022-07-17T10:35:40;27.00;97.00
10030;DHT22;5055;52.054;8.524;2022-07-17T10:38:10;27.20;97.00
10030;DHT22;5055;52.054;8.524;2022-07-17T10:40:40;27.50;97.00
10030;DHT22;5055;52.054;8.524;2022-07-17T10:43:13;27.60;97.00
10030;DHT22;5055;52.054;8.524;2022-07-17T10:45:43;28.00;97.00
10030;DHT22;5055;52.054;8.524;2022-07-17T10:48:13;28.30;97.00
10030;DHT22;5055;52.054;8.524;2022-07-17T10:50:44;28.60;97.00
10030;DHT22;5055;52.054;8.524;2022-07-17T10:53:15;28.70;97.00
10030;DHT22;5055;52.054;8.524;2022-07-17T10:55:51;29.10;97.00
10030;DHT22;5055;52.054;8.524;2022-07-17T10:58:22;29.30;97.00
10030;DHT22;5055;52.054;8.524;2022-07-17T11:01:03;29.10;97.00
10030;DHT22;5055;52.054;8.524;2022-07-17T11:03:35;29.40;97.00
10030;DHT22;5055;52.054;8.524;2022-07-17T11:06:11;28.60;97.00
10030;DHT22;5055;52.054;8.524;2022-07-17T11:08:43;28.70;97.00
10030;DHT22;5055;52.054;8.524;2022-07-17T11:11:13;28.90;97.00
10030;DHT22;5055;52.054;8.524;2022-07-17T11:13:49;29.00;97.00
10030;DHT22;5055;52.054;8.524;2022-07-17T11:16:28;28.80;97.00
10030;DHT22;5055;52.054;8.524;2022-07-17T11:18:58;29.00;97.00
10030;DHT22;5055;52.054;8.524;2022-07-17T11:21:28;29.30;97.00
10030;DHT22;5055;52.054;8.524;2022-07-17T11:23:56;29.10;97.00
10030;DHT22;5055;52.054;8.524;2022-07-17T11:26:25;28.70;97.00
10030;DHT22;5055;52.054;8.524;2022-07-17T11:28:56;28.40;97.00
10030;DHT22;5055;52.054;8.524;2022-07-17T11:31:28;28.60;97.00
10030;DHT22;5055;52.054;8.524;2022-07-17T11:33:58;28.20;97.00
10030;DHT22;5055;52.054;8.524;2022-07-17T11:36:29;28.30;97.00
10030;DHT22;5055;52.054;8.524;2022-07-17T11:39:00;28.60;97.00
10030;DHT22;5055;52.054;8.524;2022-07-17T11:41:34;28.60;97.00
10030;DHT22;5055;52.054;8.524;2022-07-17T11:44:04;28.40;97.00
10030;DHT22;5055;52.054;8.524;2022-07-17T11:46:33;28.80;97.00
10030;DHT22;5055;52.054;8.524;2022-07-17T11:49:02;29.10;97.00
10030;DHT22;5055;52.054;8.524;2022-07-17T11:51:36;29.10;97.00
10030;DHT22;5055;52.054;8.524;2022-07-17T11:54:06;29.40;97.00
10030;DHT22;5055;52.054;8.524;2022-07-17T11:56:34;29.70;97.00
10030;DHT22;5055;52.054;8.524;2022-07-17T11:59:04;29.70;97.00
10030;DHT22;5055;52.054;8.524;2022-07-17T12:01:41;29.80;97.00
10030;DHT22;5055;52.054;8.524;2022-07-17T12:04:10;29.80;97.00
10030;DHT22;5055;52.054;8.524;2022-07-17T12:06:45;30.00;97.00
10030;DHT22;5055;52.054;8.524;2022-07-17T12:09:13;29.90;97.00
10030;DHT22;5055;52.054;8.524;2022-07-17T12:11:48;29.90;97.00
10030;DHT22;5055;52.054;8.524;2022-07-17T12:14:17;29.90;97.00
10030;DHT22;5055;52.054;8.524;2022-07-17T12:16:46;30.10;97.00
10030;DHT22;5055;52.054;8.524;2022-07-17T12:19:17;30.10;97.00
10030;DHT22;5055;52.054;8.524;2022-07-17T12:21:53;30.20;97.00
10030;DHT22;5055;52.054;8.524;2022-07-17T12:24:24;30.10;97.00
10030;DHT22;5055;52.054;8.524;2022-07-17T12:26:54;30.30;97.00
10030;DHT22;5055;52.054;8.524;2022-07-17T12:29:25;30.50;97.00
10030;DHT22;5055;52.054;8.524;2022-07-17T12:32:05;30.70;97.00
10030;DHT22;5055;52.054;8.524;2022-07-17T12:34:35;31.00;97.00
10030;DHT22;5055;52.054;8.524;2022-07-17T12:37:05;31.20;97.00
10030;DHT22;5055;52.054;8.524;2022-07-17T12:39:35;30.10;97.00
10030;DHT22;5055;52.054;8.524;2022-07-17T12:42:04;29.90;97.00
10030;DHT22;5055;52.054;8.524;2022-07-17T12:44:32;29.80;97.00
10030;DHT22;5055;52.054;8.524;2022-07-17T12:47:01;30.30;97.00
10030;DHT22;5055;52.054;8.524;2022-07-17T12:49:30;30.80;97.00
10030;DHT22;5055;52.054;8.524;2022-07-17T12:51:59;31.10;97.00
10030;DHT22;5055;52.054;8.524;2022-07-17T12:54:29;31.00;97.00
10030;DHT22;5055;52.054;8.524;2022-07-17T12:56:58;30.80;97.00
10030;DHT22;5055;52.054;8.524;2022-07-17T12:59:26;30.60;97.00
10030;DHT22;5055;52.054;8.524;2022-07-17T13:01:55;30.80;97.00
10030;DHT22;5055;52.054;8.524;2022-07-17T13:04:23;31.10;97.00
10030;DHT22;5055;52.054;8.524;2022-07-17T13:06:59;31.40;96.60
10030;DHT22;5055;52.054;8.524;2022-07-17T13:09:52;31.40;97.00
10030;DHT22;5055;52.054;8.524;2022-07-17T13:12:23;31.20;97.00
10030;DHT22;5055;52.054;8.524;2022-07-17T13:14:51;30.70;97.00
10030;DHT22;5055;52.054;8.524;2022-07-17T13:17:19;30.50;97.00
10030;DHT22;5055;52.054;8.524;2022-07-17T13:19:48;29.90;97.00
10030;DHT22;5055;52.054;8.524;2022-07-17T13:22:16;30.30;97.00
10030;DHT22;5055;52.054;8.524;2022-07-17T13:24:44;30.30;97.00
10030;DHT22;5055;52.054;8.524;2022-07-17T13:27:14;30.80;97.00
10030;DHT22;5055;52.054;8.524;2022-07-17T13:29:42;31.20;97.00
10030;DHT22;5055;52.054;8.524;2022-07-17T13:32:11;31.40;97.00
10030;DHT22;5055;52.054;8.524;2022-07-17T13:34:40;31.50;97.00
10030;DHT22;5055;52.054;8.524;2022-07-17T13:37:09;31.60;97.00
10030;DHT22;5055;52.054;8.524;2022-07-17T13:39:37;31.20;96.70
10030;DHT22;5055;52.054;8.524;2022-07-17T13:42:05;30.70;97.00
10030;DHT22;5055;52.054;8.524;2022-07-17T13:44:36;30.30;97.00
10030;DHT22;5055;52.054;8.524;2022-07-17T13:47:04;30.90;97.00
10030;DHT22;5055;52.054;8.524;2022-07-17T13:49:34;31.10;95.60
10030;DHT22;5055;52.054;8.524;2022-07-17T13:52:04;31.20;93.70
10030;DHT22;5055;52.054;8.524;2022-07-17T13:54:32;30.30;91.70
10030;DHT22;5055;52.054;8.524;2022-07-17T13:57:01;29.90;91.60
10030;DHT22;5055;52.054;8.524;2022-07-17T13:59:30;30.60;93.40
10030;DHT22;5055;52.054;8.524;2022-07-17T14:02:00;30.90;91.40
10030;DHT22;5055;52.054;8.524;2022-07-17T14:04:29;31.10;89.90
10030;DHT22;5055;52.054;8.524;2022-07-17T14:06:57;31.40;90.40
10030;DHT22;5055;52.054;8.524;2022-07-17T14:09:26;31.40;91.30
10030;DHT22;5055;52.054;8.524;2022-07-17T14:11:54;31.30;91.90
10030;DHT22;5055;52.054;8.524;2022-07-17T14:14:22;31.00;93.00
10030;DHT22;5055;52.054;8.524;2022-07-17T14:16:51;31.30;93.20
10030;DHT22;5055;52.054;8.524;2022-07-17T14:19:20;31.50;92.60
10030;DHT22;5055;52.054;8.524;2022-07-17T14:21:48;31.70;91.10
10030;DHT22;5055;52.054;8.524;2022-07-17T14:24:17;31.80;89.20
10030;DHT22;5055;52.054;8.524;2022-07-17T14:26:46;31.70;88.90
10030;DHT22;5055;52.054;8.524;2022-07-17T14:29:15;31.70;89.10
10030;DHT22;5055;52.054;8.524;2022-07-17T14:31:43;31.20;89.80
10030;DHT22;5055;52.054;8.524;2022-07-17T14:34:11;31.30;90.20
10030;DHT22;5055;52.054;8.524;2022-07-17T14:36:41;30.50;87.80
10030;DHT22;5055;52.054;8.524;2022-07-17T14:39:10;30.80;87.50
10030;DHT22;5055;52.054;8.524;2022-07-17T14:41:39;31.00;86.60
10030;DHT22;5055;52.054;8.524;2022-07-17T14:44:07;31.10;86.80
10030;DHT22;5055;52.054;8.524;2022-07-17T14:46:35;31.40;88.60
10030;DHT22;5055;52.054;8.524;2022-07-17T14:49:04;31.40;89.40
10030;DHT22;5055;52.054;8.524;2022-07-17T14:51:33;31.40;90.40
10030;DHT22;5055;52.054;8.524;2022-07-17T14:54:03;31.00;93.00
10030;DHT22;5055;52.054;8.524;2022-07-17T14:56:31;30.90;91.30
10030;DHT22;5055;52.054;8.524;2022-07-17T14:58:59;31.30;90.50
10030;DHT22;5055;52.054;8.524;2022-07-17T15:01:27;31.60;90.50
10030;DHT22;5055;52.054;8.524;2022-07-17T15:03:56;32.10;91.00
10030;DHT22;5055;52.054;8.524;2022-07-17T15:06:24;32.50;90.60
10030;DHT22;5055;52.054;8.524;2022-07-17T15:08:52;32.60;89.30
10030;DHT22;5055;52.054;8.524;2022-07-17T15:11:21;32.80;88.30
10030;DHT22;5055;52.054;8.524;2022-07-17T15:13:50;33.10;88.40
10030;DHT22;5055;52.054;8.524;2022-07-17T15:16:18;33.10;89.70
10030;DHT22;5055;52.054;8.524;2022-07-17T15:18:46;33.20;89.30
10030;DHT22;5055;52.054;8.524;2022-07-17T15:21:14;32.90;88.10
10030;DHT22;5055;52.054;8.524;2022-07-17T15:24:03;32.80;87.60
10030;DHT22;5055;52.054;8.524;2022-07-17T15:26:32;32.90;88.80
10030;DHT22;5055;52.054;8.524;2022-07-17T15:29:01;32.60;89.00
10030;DHT22;5055;52.054;8.524;2022-07-17T15:31:29;32.70;89.40
10030;DHT22;5055;52.054;8.524;2022-07-17T15:33:58;32.50;89.10
10030;DHT22;5055;52.054;8.524;2022-07-17T15:36:26;32.50;89.10
10030;DHT22;5055;52.054;8.524;2022-07-17T15:38:56;32.40;90.10
10030;DHT22;5055;52.054;8.524;2022-07-17T15:41:26;32.20;89.10
10030;DHT22;5055;52.054;8.524;2022-07-17T15:43:56;31.90;88.00
10030;DHT22;5055;52.054;8.524;2022-07-17T15:46:24;31.50;88.60
10030;DHT22;5055;52.054;8.524;2022-07-17T15:48:53;31.50;89.40
10030;DHT22;5055;52.054;8.524;2022-07-17T15:51:21;31.60;91.60
10030;DHT22;5055;52.054;8.524;2022-07-17T15:53:49;31.50;91.50
10030;DHT22;5055;52.054;8.524;2022-07-17T15:56:17;31.40;91.20
10030;DHT22;5055;52.054;8.524;2022-07-17T15:58:46;31.30;91.20
10030;DHT22;5055;52.054;8.524;2022-07-17T16:01:15;31.10;90.50
10030;DHT22;5055;52.054;8.524;2022-07-17T16:03:44;30.90;91.10
10030;DHT22;5055;52.054;8.524;2022-07-17T16:06:26;30.70;92.70